sensor_id;sensor_type;location;lat;lon;timestamp;P1;durP1;ratioP1;P2;durP2;ratioP2
45944;SDS011;31655;48.972;10.686;2022-09-01T00:01:21;28.73;;;21.02;;
45944;SDS011;31655;48.972;10.686;2022-09-01T00:03:50;26.70;;;19.27;;
45944;SDS011;31655;48.972;10.686;2022-09-01T00:06:18;26.83;;;19.73;;
45944;SDS011;31655;48.972;10.686;2022-09-01T00:11:16;26.98;;;17.60;;
45944;SDS011;31655;48.972;10.686;2022-09-01T00:13:42;24.92;;;17.80;;
45944;SDS011;31655;48.972;10.686;2022-09-01T00:16:08;23.30;;;17.33;;
45944;SDS011;31655;48.972;10.686;2022-09-01T00:18:38;24.00;;;16.65;;
45944;SDS011;31655;48.972;10.686;2022-09-01T00:21:08;26.95;;;18.40;;
45944;SDS011;31655;48.972;10.686;2022-09-01T00:23:35;33.55;;;20.17;;
45944;SDS011;31655;48.972;10.686;2022-09-01T00:26:01;24.27;;;16.67;;
45944;SDS011;31655;48.972;10.686;2022-09-01T00:28:26;24.48;;;17.02;;
45944;SDS011;31655;48.972;10.686;2022-09-01T00:30:52;24.08;;;17.13;;
45944;SDS011;31655;48.972;10.686;2022-09-01T00:33:17;34.50;;;22.73;;
45944;SDS011;31655;48.972;10.686;2022-09-01T00:35:43;47.35;;;25.17;;
45944;SDS011;31655;48.972;10.686;2022-09-01T00:38:09;36.38;;;23.50;;
45944;SDS011;31655;48.972;10.686;2022-09-01T00:40:35;32.05;;;20.92;;
45944;SDS011;31655;48.972;10.686;2022-09-01T00:43:10;32.35;;;21.77;;
45944;SDS011;31655;48.972;10.686;2022-09-01T00:45:41;47.17;;;26.13;;
45944;SDS011;31655;48.972;10.686;2022-09-01T00:48:07;34.85;;;22.23;;
45944;SDS011;31655;48.972;10.686;2022-09-01T00:50:33;32.15;;;20.30;;
45944;SDS011;31655;48.972;10.686;2022-09-01T00:53:00;29.60;;;20.88;;
45944;SDS011;31655;48.972;10.686;2022-09-01T00:55:27;29.55;;;20.27;;
45944;SDS011;31655;48.972;10.686;2022-09-01T00:57:55;25.55;;;18.90;;
45944;SDS011;31655;48.972;10.686;2022-09-01T01:00:22;29.90;;;19.60;;
45944;SDS011;31655;48.972;10.686;2022-09-01T01:02:51;34.03;;;20.60;;
45944;SDS011;31655;48.972;10.686;2022-09-01T01:05:20;26.45;;;18.80;;
45944;SDS011;31655;48.972;10.686;2022-09-01T01:07:48;27.13;;;18.75;;
45944;SDS011;31655;48.972;10.686;2022-09-01T01:10:15;27.88;;;19.65;;
45944;SDS011;31655;48.972;10.686;2022-09-01T01:12:42;26.23;;;17.90;;
45944;SDS011;31655;48.972;10.686;2022-09-01T01:15:12;32.97;;;20.10;;
45944;SDS011;31655;48.972;10.686;2022-09-01T01:17:38;30.92;;;19.52;;
45944;SDS011;31655;48.972;10.686;2022-09-01T01:20:05;30.58;;;20.38;;
45944;SDS011;31655;48.972;10.686;2022-09-01T01:25:46;31.63;;;21.40;;
45944;SDS011;31655;48.972;10.686;2022-09-01T01:31:01;35.92;;;22.98;;
45944;SDS011;31655;48.972;10.686;2022-09-01T01:33:36;41.13;;;27.23;;
45944;SDS011;31655;48.972;10.686;2022-09-01T01:36:06;37.08;;;23.52;;
45944;SDS011;31655;48.972;10.686;2022-09-01T01:38:37;36.42;;;24.67;;
45944;SDS011;31655;48.972;10.686;2022-09-01T01:41:07;35.75;;;24.00;;
45944;SDS011;31655;48.972;10.686;2022-09-01T01:43:34;34.30;;;23.05;;
45944;SDS011;31655;48.972;10.686;2022-09-01T01:46:01;36.50;;;23.42;;
45944;SDS011;31655;48.972;10.686;2022-09-01T01:48:30;38.33;;;25.83;;
45944;SDS011;31655;48.972;10.686;2022-09-01T01:50:59;43.03;;;26.95;;
45944;SDS011;31655;48.972;10.686;2022-09-01T01:53:25;41.00;;;27.77;;
45944;SDS011;31655;48.972;10.686;2022-09-01T01:55:52;44.67;;;27.35;;
45944;SDS011;31655;48.972;10.686;2022-09-01T01:58:20;41.88;;;26.95;;
45944;SDS011;31655;48.972;10.686;2022-09-01T02:00:48;44.53;;;27.48;;
45944;SDS011;31655;48.972;10.686;2022-09-01T02:03:16;50.10;;;30.83;;
45944;SDS011;31655;48.972;10.686;2022-09-01T02:05:45;40.60;;;27.00;;
45944;SDS011;31655;48.972;10.686;2022-09-01T02:08:12;49.13;;;28.38;;
45944;SDS011;31655;48.972;10.686;2022-09-01T02:10:46;41.67;;;26.42;;
45944;SDS011;31655;48.972;10.686;2022-09-01T02:13:14;39.67;;;25.07;;
45944;SDS011;31655;48.972;10.686;2022-09-01T02:15:43;40.13;;;27.50;;
45944;SDS011;31655;48.972;10.686;2022-09-01T02:21:12;42.72;;;27.65;;
45944;SDS011;31655;48.972;10.686;2022-09-01T02:23:43;41.47;;;26.65;;
45944;SDS011;31655;48.972;10.686;2022-09-01T02:26:11;42.35;;;26.58;;
45944;SDS011;31655;48.972;10.686;2022-09-01T02:28:37;40.40;;;25.23;;
45944;SDS011;31655;48.972;10.686;2022-09-01T02:31:06;51.05;;;30.00;;
45944;SDS011;31655;48.972;10.686;2022-09-01T02:33:33;75.88;;;37.30;;
45944;SDS011;31655;48.972;10.686;2022-09-01T02:36:01;44.80;;;28.95;;
45944;SDS011;31655;48.972;10.686;2022-09-01T02:38:32;42.13;;;26.63;;
45944;SDS011;31655;48.972;10.686;2022-09-01T02:40:59;52.17;;;30.98;;
45944;SDS011;31655;48.972;10.686;2022-09-01T02:43:26;41.20;;;26.55;;
45944;SDS011;31655;48.972;10.686;2022-09-01T02:45:58;42.28;;;27.35;;
45944;SDS011;31655;48.972;10.686;2022-09-01T02:48:32;47.00;;;29.90;;
45944;SDS011;31655;48.972;10.686;2022-09-01T02:51:09;44.53;;;28.02;;
45944;SDS011;31655;48.972;10.686;2022-09-01T02:53:40;55.55;;;31.08;;
45944;SDS011;31655;48.972;10.686;2022-09-01T02:56:07;48.05;;;30.08;;
45944;SDS011;31655;48.972;10.686;2022-09-01T02:58:38;50.35;;;30.88;;
45944;SDS011;31655;48.972;10.686;2022-09-01T03:01:10;61.83;;;35.75;;
45944;SDS011;31655;48.972;10.686;2022-09-01T03:03:44;60.05;;;34.80;;
45944;SDS011;31655;48.972;10.686;2022-09-01T03:06:10;63.72;;;36.03;;
45944;SDS011;31655;48.972;10.686;2022-09-01T03:08:36;61.95;;;34.70;;
45944;SDS011;31655;48.972;10.686;2022-09-01T03:11:03;67.45;;;37.10;;
45944;SDS011;31655;48.972;10.686;2022-09-01T03:13:31;63.53;;;36.83;;
45944;SDS011;31655;48.972;10.686;2022-09-01T03:15:57;62.88;;;35.75;;
45944;SDS011;31655;48.972;10.686;2022-09-01T03:18:22;70.80;;;39.78;;
45944;SDS011;31655;48.972;10.686;2022-09-01T03:20:48;60.13;;;33.92;;
45944;SDS011;31655;48.972;10.686;2022-09-01T03:23:16;56.17;;;33.20;;
45944;SDS011;31655;48.972;10.686;2022-09-01T03:25:43;56.38;;;33.03;;
45944;SDS011;31655;48.972;10.686;2022-09-01T03:28:13;49.92;;;29.80;;
45944;SDS011;31655;48.972;10.686;2022-09-01T03:30:43;47.92;;;30.38;;
45944;SDS011;31655;48.972;10.686;2022-09-01T03:33:14;62.95;;;37.33;;
45944;SDS011;31655;48.972;10.686;2022-09-01T03:35:42;53.47;;;32.13;;
45944;SDS011;31655;48.972;10.686;2022-09-01T03:38:08;51.65;;;31.23;;
45944;SDS011;31655;48.972;10.686;2022-09-01T03:40:37;56.40;;;32.85;;
45944;SDS011;31655;48.972;10.686;2022-09-01T03:43:05;52.13;;;31.17;;
45944;SDS011;31655;48.972;10.686;2022-09-01T03:45:36;49.05;;;31.83;;
45944;SDS011;31655;48.972;10.686;2022-09-01T03:48:03;62.97;;;35.90;;
45944;SDS011;31655;48.972;10.686;2022-09-01T03:50:34;55.10;;;33.00;;
45944;SDS011;31655;48.972;10.686;2022-09-01T03:53:05;55.35;;;31.50;;
45944;SDS011;31655;48.972;10.686;2022-09-01T03:55:32;51.47;;;28.60;;
45944;SDS011;31655;48.972;10.686;2022-09-01T03:58:00;49.97;;;29.42;;
45944;SDS011;31655;48.972;10.686;2022-09-01T04:00:38;52.85;;;31.15;;
45944;SDS011;31655;48.972;10.686;2022-09-01T04:03:07;52.63;;;31.58;;
45944;SDS011;31655;48.972;10.686;2022-09-01T04:05:35;48.00;;;30.50;;
45944;SDS011;31655;48.972;10.686;2022-09-01T04:08:04;58.85;;;33.00;;
45944;SDS011;31655;48.972;10.686;2022-09-01T04:10:32;45.58;;;28.67;;
45944;SDS011;31655;48.972;10.686;2022-09-01T04:13:00;45.40;;;28.23;;
45944;SDS011;31655;48.972;10.686;2022-09-01T04:15:26;48.65;;;28.92;;
45944;SDS011;31655;48.972;10.686;2022-09-01T04:17:53;48.33;;;29.52;;
45944;SDS011;31655;48.972;10.686;2022-09-01T04:20:37;48.05;;;29.05;;
45944;SDS011;31655;48.972;10.686;2022-09-01T04:23:19;47.03;;;29.52;;
45944;SDS011;31655;48.972;10.686;2022-09-01T04:25:49;46.88;;;28.67;;
45944;SDS011;31655;48.972;10.686;2022-09-01T04:28:16;46.40;;;27.92;;
45944;SDS011;31655;48.972;10.686;2022-09-01T04:30:48;48.15;;;27.88;;
45944;SDS011;31655;48.972;10.686;2022-09-01T04:33:14;49.58;;;30.20;;
45944;SDS011;31655;48.972;10.686;2022-09-01T04:35:41;61.50;;;34.35;;
45944;SDS011;31655;48.972;10.686;2022-09-01T04:38:07;56.13;;;32.63;;
45944;SDS011;31655;48.972;10.686;2022-09-01T04:40:36;49.42;;;27.85;;
45944;SDS011;31655;48.972;10.686;2022-09-01T04:43:04;44.65;;;27.95;;
45944;SDS011;31655;48.972;10.686;2022-09-01T04:45:30;44.75;;;27.83;;
45944;SDS011;31655;48.972;10.686;2022-09-01T04:47:56;40.55;;;27.13;;
45944;SDS011;31655;48.972;10.686;2022-09-01T04:50:23;49.53;;;29.27;;
45944;SDS011;31655;48.972;10.686;2022-09-01T04:52:50;93.28;;;47.58;;
45944;SDS011;31655;48.972;10.686;2022-09-01T04:55:15;46.17;;;29.52;;
45944;SDS011;31655;48.972;10.686;2022-09-01T04:57:42;46.45;;;26.95;;
45944;SDS011;31655;48.972;10.686;2022-09-01T05:00:11;51.08;;;31.50;;
45944;SDS011;31655;48.972;10.686;2022-09-01T05:02:52;51.17;;;31.05;;
45944;SDS011;31655;48.972;10.686;2022-09-01T05:05:20;42.42;;;27.80;;
45944;SDS011;31655;48.972;10.686;2022-09-01T05:07:46;38.55;;;26.60;;
45944;SDS011;31655;48.972;10.686;2022-09-01T05:10:16;39.63;;;25.17;;
45944;SDS011;31655;48.972;10.686;2022-09-01T05:12:43;32.97;;;23.65;;
45944;SDS011;31655;48.972;10.686;2022-09-01T05:15:12;32.58;;;23.48;;
45944;SDS011;31655;48.972;10.686;2022-09-01T05:17:39;29.05;;;21.98;;
45944;SDS011;31655;48.972;10.686;2022-09-01T05:20:06;28.92;;;21.13;;
45944;SDS011;31655;48.972;10.686;2022-09-01T05:22:33;27.27;;;20.27;;
45944;SDS011;31655;48.972;10.686;2022-09-01T05:24:59;26.17;;;18.17;;
45944;SDS011;31655;48.972;10.686;2022-09-01T05:27:41;24.67;;;16.65;;
45944;SDS011;31655;48.972;10.686;2022-09-01T05:30:13;22.38;;;17.33;;
45944;SDS011;31655;48.972;10.686;2022-09-01T05:32:40;20.85;;;16.40;;
45944;SDS011;31655;48.972;10.686;2022-09-01T05:35:07;18.92;;;14.93;;
45944;SDS011;31655;48.972;10.686;2022-09-01T05:37:34;19.58;;;15.07;;
45944;SDS011;31655;48.972;10.686;2022-09-01T05:40:02;20.48;;;15.93;;
45944;SDS011;31655;48.972;10.686;2022-09-01T05:42:29;18.90;;;13.43;;
45944;SDS011;31655;48.972;10.686;2022-09-01T05:44:56;21.55;;;14.95;;
45944;SDS011;31655;48.972;10.686;2022-09-01T05:47:21;18.77;;;13.95;;
45944;SDS011;31655;48.972;10.686;2022-09-01T05:49:47;18.55;;;13.73;;
45944;SDS011;31655;48.972;10.686;2022-09-01T05:52:14;21.35;;;14.40;;
45944;SDS011;31655;48.972;10.686;2022-09-01T05:54:39;18.75;;;14.35;;
45944;SDS011;31655;48.972;10.686;2022-09-01T05:57:05;19.27;;;12.50;;
45944;SDS011;31655;48.972;10.686;2022-09-01T05:59:31;16.63;;;13.43;;
45944;SDS011;31655;48.972;10.686;2022-09-01T06:01:57;19.15;;;14.88;;
45944;SDS011;31655;48.972;10.686;2022-09-01T06:04:23;21.77;;;14.55;;
45944;SDS011;31655;48.972;10.686;2022-09-01T06:06:52;20.85;;;15.10;;
45944;SDS011;31655;48.972;10.686;2022-09-01T06:09:19;21.17;;;15.50;;
45944;SDS011;31655;48.972;10.686;2022-09-01T06:11:47;18.52;;;13.70;;
45944;SDS011;31655;48.972;10.686;2022-09-01T06:14:13;24.77;;;16.25;;
45944;SDS011;31655;48.972;10.686;2022-09-01T06:16:40;20.63;;;15.38;;
45944;SDS011;31655;48.972;10.686;2022-09-01T06:19:06;21.63;;;15.57;;
45944;SDS011;31655;48.972;10.686;2022-09-01T06:21:32;29.42;;;17.73;;
45944;SDS011;31655;48.972;10.686;2022-09-01T06:23:58;36.00;;;18.48;;
45944;SDS011;31655;48.972;10.686;2022-09-01T06:26:25;22.08;;;15.23;;
45944;SDS011;31655;48.972;10.686;2022-09-01T06:28:54;18.38;;;14.82;;
45944;SDS011;31655;48.972;10.686;2022-09-01T06:31:22;21.13;;;15.30;;
45944;SDS011;31655;48.972;10.686;2022-09-01T06:33:53;19.40;;;14.48;;
45944;SDS011;31655;48.972;10.686;2022-09-01T06:36:20;19.70;;;15.57;;
45944;SDS011;31655;48.972;10.686;2022-09-01T06:38:47;17.30;;;14.05;;
45944;SDS011;31655;48.972;10.686;2022-09-01T06:41:17;18.92;;;15.38;;
45944;SDS011;31655;48.972;10.686;2022-09-01T06:43:47;21.98;;;15.13;;
45944;SDS011;31655;48.972;10.686;2022-09-01T06:46:15;20.08;;;15.57;;
45944;SDS011;31655;48.972;10.686;2022-09-01T06:48:42;19.10;;;15.90;;
45944;SDS011;31655;48.972;10.686;2022-09-01T06:51:11;17.95;;;14.75;;
45944;SDS011;31655;48.972;10.686;2022-09-01T06:53:39;21.60;;;15.10;;
45944;SDS011;31655;48.972;10.686;2022-09-01T06:56:06;18.52;;;13.98;;
45944;SDS011;31655;48.972;10.686;2022-09-01T06:58:35;18.55;;;14.90;;
45944;SDS011;31655;48.972;10.686;2022-09-01T07:01:06;19.92;;;14.98;;
45944;SDS011;31655;48.972;10.686;2022-09-01T07:03:38;17.88;;;13.00;;
45944;SDS011;31655;48.972;10.686;2022-09-01T07:06:04;16.75;;;11.60;;
45944;SDS011;31655;48.972;10.686;2022-09-01T07:08:31;14.40;;;11.50;;
45944;SDS011;31655;48.972;10.686;2022-09-01T07:11:04;14.75;;;10.50;;
45944;SDS011;31655;48.972;10.686;2022-09-01T07:13:31;14.98;;;10.88;;
45944;SDS011;31655;48.972;10.686;2022-09-01T07:15:59;11.88;;;10.57;;
45944;SDS011;31655;48.972;10.686;2022-09-01T07:18:28;15.82;;;12.65;;
45944;SDS011;31655;48.972;10.686;2022-09-01T07:20:55;13.63;;;11.18;;
45944;SDS011;31655;48.972;10.686;2022-09-01T07:23:20;16.10;;;11.20;;
45944;SDS011;31655;48.972;10.686;2022-09-01T07:25:48;14.85;;;10.90;;
45944;SDS011;31655;48.972;10.686;2022-09-01T07:28:18;14.07;;;10.25;;
45944;SDS011;31655;48.972;10.686;2022-09-01T07:30:47;17.52;;;11.60;;
45944;SDS011;31655;48.972;10.686;2022-09-01T07:33:17;14.23;;;10.48;;
45944;SDS011;31655;48.972;10.686;2022-09-01T07:35:47;14.85;;;10.07;;
45944;SDS011;31655;48.972;10.686;2022-09-01T07:38:13;12.80;;;8.82;;
45944;SDS011;31655;48.972;10.686;2022-09-01T07:40:42;11.25;;;9.38;;
45944;SDS011;31655;48.972;10.686;2022-09-01T07:43:17;10.07;;;8.52;;
45944;SDS011;31655;48.972;10.686;2022-09-01T07:45:49;11.88;;;8.25;;
45944;SDS011;31655;48.972;10.686;2022-09-01T07:48:17;8.48;;;7.55;;
45944;SDS011;31655;48.972;10.686;2022-09-01T07:50:44;13.65;;;8.50;;
45944;SDS011;31655;48.972;10.686;2022-09-01T07:53:33;19.52;;;10.77;;
45944;SDS011;31655;48.972;10.686;2022-09-01T07:56:03;10.43;;;8.38;;
45944;SDS011;31655;48.972;10.686;2022-09-01T07:58:33;13.73;;;9.88;;
45944;SDS011;31655;48.972;10.686;2022-09-01T08:01:01;16.65;;;10.68;;
45944;SDS011;31655;48.972;10.686;2022-09-01T08:03:30;28.70;;;13.75;;
45944;SDS011;31655;48.972;10.686;2022-09-01T08:06:00;8.60;;;6.60;;
45944;SDS011;31655;48.972;10.686;2022-09-01T08:08:34;10.98;;;6.50;;
45944;SDS011;31655;48.972;10.686;2022-09-01T08:11:00;8.20;;;6.60;;
45944;SDS011;31655;48.972;10.686;2022-09-01T08:13:26;14.27;;;8.30;;
45944;SDS011;31655;48.972;10.686;2022-09-01T08:15:55;9.30;;;6.78;;
45944;SDS011;31655;48.972;10.686;2022-09-01T08:18:20;8.45;;;6.95;;
45944;SDS011;31655;48.972;10.686;2022-09-01T08:20:46;9.20;;;6.80;;
45944;SDS011;31655;48.972;10.686;2022-09-01T08:23:14;8.18;;;6.82;;
45944;SDS011;31655;48.972;10.686;2022-09-01T08:25:42;9.13;;;6.85;;
45944;SDS011;31655;48.972;10.686;2022-09-01T08:28:09;8.38;;;7.13;;
45944;SDS011;31655;48.972;10.686;2022-09-01T08:30:37;8.93;;;7.28;;
45944;SDS011;31655;48.972;10.686;2022-09-01T08:33:05;24.35;;;12.63;;
45944;SDS011;31655;48.972;10.686;2022-09-01T08:35:31;8.98;;;7.22;;
45944;SDS011;31655;48.972;10.686;2022-09-01T08:37:57;9.73;;;7.13;;
45944;SDS011;31655;48.972;10.686;2022-09-01T08:40:23;11.20;;;6.55;;
45944;SDS011;31655;48.972;10.686;2022-09-01T08:42:56;8.00;;;6.43;;
45944;SDS011;31655;48.972;10.686;2022-09-01T08:46:13;9.98;;;6.82;;
45944;SDS011;31655;48.972;10.686;2022-09-01T08:48:38;8.13;;;6.78;;
45944;SDS011;31655;48.972;10.686;2022-09-01T08:51:12;14.77;;;8.48;;
45944;SDS011;31655;48.972;10.686;2022-09-01T08:54:04;12.82;;;6.88;;
45944;SDS011;31655;48.972;10.686;2022-09-01T08:56:46;6.88;;;6.15;;
45944;SDS011;31655;48.972;10.686;2022-09-01T08:59:13;7.40;;;6.50;;
45944;SDS011;31655;48.972;10.686;2022-09-01T09:01:42;7.45;;;6.35;;
45944;SDS011;31655;48.972;10.686;2022-09-01T09:07:18;9.13;;;6.18;;
45944;SDS011;31655;48.972;10.686;2022-09-01T09:09:58;10.32;;;7.90;;
45944;SDS011;31655;48.972;10.686;2022-09-01T09:12:48;6.50;;;5.65;;
45944;SDS011;31655;48.972;10.686;2022-09-01T09:18:15;9.60;;;6.63;;
45944;SDS011;31655;48.972;10.686;2022-09-01T09:20:53;7.93;;;6.22;;
45944;SDS011;31655;48.972;10.686;2022-09-01T09:23:24;7.20;;;6.15;;
45944;SDS011;31655;48.972;10.686;2022-09-01T09:25:55;7.95;;;5.80;;
45944;SDS011;31655;48.972;10.686;2022-09-01T09:28:21;10.20;;;8.80;;
45944;SDS011;31655;48.972;10.686;2022-09-01T09:30:47;10.57;;;8.23;;
45944;SDS011;31655;48.972;10.686;2022-09-01T09:33:32;9.32;;;6.55;;
45944;SDS011;31655;48.972;10.686;2022-09-01T09:36:19;7.47;;;5.80;;
45944;SDS011;31655;48.972;10.686;2022-09-01T09:38:57;7.43;;;6.35;;
45944;SDS011;31655;48.972;10.686;2022-09-01T09:41:27;7.20;;;6.50;;
45944;SDS011;31655;48.972;10.686;2022-09-01T09:46:50;8.18;;;6.45;;
45944;SDS011;31655;48.972;10.686;2022-09-01T09:49:22;7.32;;;6.53;;
45944;SDS011;31655;48.972;10.686;2022-09-01T09:52:15;9.65;;;7.53;;
45944;SDS011;31655;48.972;10.686;2022-09-01T09:54:58;9.23;;;8.32;;
45944;SDS011;31655;48.972;10.686;2022-09-01T09:57:27;17.20;;;8.65;;
45944;SDS011;31655;48.972;10.686;2022-09-01T10:00:30;17.73;;;12.13;;
45944;SDS011;31655;48.972;10.686;2022-09-01T10:02:52;40.97;;;21.13;;
45944;SDS011;31655;48.972;10.686;2022-09-01T10:07:53;14.18;;;12.00;;
45944;SDS011;31655;48.972;10.686;2022-09-01T10:10:37;15.57;;;11.00;;
45944;SDS011;31655;48.972;10.686;2022-09-01T10:13:03;20.48;;;14.65;;
45944;SDS011;31655;48.972;10.686;2022-09-01T10:15:32;14.00;;;10.80;;
45944;SDS011;31655;48.972;10.686;2022-09-01T10:18:17;13.13;;;10.98;;
45944;SDS011;31655;48.972;10.686;2022-09-01T10:20:48;13.98;;;9.80;;
45944;SDS011;31655;48.972;10.686;2022-09-01T10:23:20;15.82;;;10.48;;
45944;SDS011;31655;48.972;10.686;2022-09-01T10:25:45;18.77;;;11.95;;
45944;SDS011;31655;48.972;10.686;2022-09-01T10:28:17;12.25;;;9.85;;
45944;SDS011;31655;48.972;10.686;2022-09-01T10:30:48;13.00;;;9.13;;
45944;SDS011;31655;48.972;10.686;2022-09-01T10:33:17;9.73;;;8.02;;
45944;SDS011;31655;48.972;10.686;2022-09-01T10:35:45;10.45;;;9.35;;
45944;SDS011;31655;48.972;10.686;2022-09-01T10:38:18;13.43;;;9.65;;
45944;SDS011;31655;48.972;10.686;2022-09-01T10:40:47;13.48;;;9.98;;
45944;SDS011;31655;48.972;10.686;2022-09-01T10:48:48;12.85;;;9.60;;
45944;SDS011;31655;48.972;10.686;2022-09-01T10:51:33;11.20;;;8.70;;
45944;SDS011;31655;48.972;10.686;2022-09-01T10:54:08;9.57;;;8.38;;
45944;SDS011;31655;48.972;10.686;2022-09-01T10:56:54;15.75;;;8.32;;
45944;SDS011;31655;48.972;10.686;2022-09-01T11:06:54;9.20;;;7.70;;
45944;SDS011;31655;48.972;10.686;2022-09-01T11:09:41;7.78;;;6.97;;
45944;SDS011;31655;48.972;10.686;2022-09-01T11:15:37;8.75;;;6.68;;
45944;SDS011;31655;48.972;10.686;2022-09-01T11:25:41;5.10;;;4.43;;
45944;SDS011;31655;48.972;10.686;2022-09-01T11:28:37;4.95;;;4.43;;
45944;SDS011;31655;48.972;10.686;2022-09-01T11:36:35;5.55;;;3.97;;
45944;SDS011;31655;48.972;10.686;2022-09-01T11:41:53;4.60;;;4.10;;
45944;SDS011;31655;48.972;10.686;2022-09-01T11:47:14;5.93;;;4.47;;
45944;SDS011;31655;48.972;10.686;2022-09-01T11:50:02;4.78;;;3.67;;
45944;SDS011;31655;48.972;10.686;2022-09-01T11:52:33;4.15;;;3.75;;
45944;SDS011;31655;48.972;10.686;2022-09-01T11:55:00;4.75;;;3.92;;
45944;SDS011;31655;48.972;10.686;2022-09-01T12:00:04;4.68;;;3.60;;
45944;SDS011;31655;48.972;10.686;2022-09-01T12:02:35;6.22;;;4.55;;
45944;SDS011;31655;48.972;10.686;2022-09-01T12:05:24;4.13;;;3.70;;
45944;SDS011;31655;48.972;10.686;2022-09-01T12:07:55;5.45;;;4.45;;
45944;SDS011;31655;48.972;10.686;2022-09-01T12:12:58;6.65;;;4.07;;
45944;SDS011;31655;48.972;10.686;2022-09-01T12:15:25;5.50;;;4.43;;
45944;SDS011;31655;48.972;10.686;2022-09-01T12:17:51;6.60;;;4.75;;
45944;SDS011;31655;48.972;10.686;2022-09-01T12:20:22;6.70;;;5.63;;
45944;SDS011;31655;48.972;10.686;2022-09-01T12:22:53;4.13;;;3.78;;
45944;SDS011;31655;48.972;10.686;2022-09-01T12:25:32;4.13;;;3.72;;
45944;SDS011;31655;48.972;10.686;2022-09-01T12:27:59;7.10;;;4.22;;
45944;SDS011;31655;48.972;10.686;2022-09-01T12:30:26;6.18;;;3.75;;
45944;SDS011;31655;48.972;10.686;2022-09-01T12:32:53;4.25;;;3.85;;
45944;SDS011;31655;48.972;10.686;2022-09-01T12:35:24;4.35;;;3.95;;
45944;SDS011;31655;48.972;10.686;2022-09-01T12:37:50;4.68;;;4.13;;
45944;SDS011;31655;48.972;10.686;2022-09-01T12:40:33;5.30;;;4.15;;
45944;SDS011;31655;48.972;10.686;2022-09-01T12:42:59;5.43;;;3.80;;
45944;SDS011;31655;48.972;10.686;2022-09-01T12:45:36;5.32;;;3.70;;
45944;SDS011;31655;48.972;10.686;2022-09-01T12:48:01;4.43;;;4.03;;
45944;SDS011;31655;48.972;10.686;2022-09-01T12:52:57;5.97;;;4.75;;
45944;SDS011;31655;48.972;10.686;2022-09-01T12:57:56;6.63;;;4.75;;
45944;SDS011;31655;48.972;10.686;2022-09-01T13:08:02;7.88;;;4.78;;
45944;SDS011;31655;48.972;10.686;2022-09-01T13:10:40;7.10;;;5.07;;
45944;SDS011;31655;48.972;10.686;2022-09-01T13:13:11;6.15;;;4.57;;
45944;SDS011;31655;48.972;10.686;2022-09-01T13:15:40;15.27;;;5.10;;
45944;SDS011;31655;48.972;10.686;2022-09-01T13:18:07;5.38;;;3.72;;
45944;SDS011;31655;48.972;10.686;2022-09-01T13:20:33;6.80;;;4.20;;
45944;SDS011;31655;48.972;10.686;2022-09-01T13:22:59;4.68;;;3.63;;
45944;SDS011;31655;48.972;10.686;2022-09-01T13:25:25;7.07;;;4.13;;
45944;SDS011;31655;48.972;10.686;2022-09-01T13:27:50;6.45;;;4.45;;
45944;SDS011;31655;48.972;10.686;2022-09-01T13:30:19;4.38;;;3.88;;
45944;SDS011;31655;48.972;10.686;2022-09-01T13:32:47;5.35;;;4.18;;
45944;SDS011;31655;48.972;10.686;2022-09-01T13:35:15;6.68;;;3.90;;
45944;SDS011;31655;48.972;10.686;2022-09-01T13:37:43;4.05;;;3.67;;
45944;SDS011;31655;48.972;10.686;2022-09-01T13:40:09;4.60;;;4.20;;
45944;SDS011;31655;48.972;10.686;2022-09-01T13:43:14;11.13;;;5.90;;
45944;SDS011;31655;48.972;10.686;2022-09-01T13:45:32;6.07;;;4.47;;
45944;SDS011;31655;48.972;10.686;2022-09-01T13:47:58;5.43;;;4.00;;
45944;SDS011;31655;48.972;10.686;2022-09-01T13:50:24;6.65;;;3.88;;
45944;SDS011;31655;48.972;10.686;2022-09-01T13:52:51;5.20;;;3.72;;
45944;SDS011;31655;48.972;10.686;2022-09-01T13:55:21;4.70;;;4.18;;
45944;SDS011;31655;48.972;10.686;2022-09-01T13:57:49;4.00;;;3.60;;
45944;SDS011;31655;48.972;10.686;2022-09-01T14:00:16;5.30;;;4.25;;
45944;SDS011;31655;48.972;10.686;2022-09-01T14:02:45;6.50;;;4.03;;
45944;SDS011;31655;48.972;10.686;2022-09-01T14:05:13;6.18;;;3.80;;
45944;SDS011;31655;48.972;10.686;2022-09-01T14:07:39;4.45;;;4.03;;
45944;SDS011;31655;48.972;10.686;2022-09-01T14:10:05;5.47;;;4.18;;
45944;SDS011;31655;48.972;10.686;2022-09-01T14:12:31;4.20;;;3.83;;
45944;SDS011;31655;48.972;10.686;2022-09-01T14:14:57;4.18;;;3.45;;
45944;SDS011;31655;48.972;10.686;2022-09-01T14:17:23;4.35;;;3.92;;
45944;SDS011;31655;48.972;10.686;2022-09-01T14:19:51;5.10;;;4.30;;
45944;SDS011;31655;48.972;10.686;2022-09-01T14:22:17;5.10;;;4.60;;
45944;SDS011;31655;48.972;10.686;2022-09-01T14:24:43;8.40;;;4.28;;
45944;SDS011;31655;48.972;10.686;2022-09-01T14:27:08;5.57;;;4.57;;
45944;SDS011;31655;48.972;10.686;2022-09-01T14:29:35;5.85;;;4.70;;
45944;SDS011;31655;48.972;10.686;2022-09-01T14:32:00;4.70;;;3.78;;
45944;SDS011;31655;48.972;10.686;2022-09-01T14:34:26;4.65;;;4.25;;
45944;SDS011;31655;48.972;10.686;2022-09-01T14:36:52;5.53;;;4.13;;
45944;SDS011;31655;48.972;10.686;2022-09-01T14:39:20;9.27;;;4.68;;
45944;SDS011;31655;48.972;10.686;2022-09-01T14:41:46;4.85;;;4.32;;
45944;SDS011;31655;48.972;10.686;2022-09-01T14:44:11;5.53;;;4.68;;
45944;SDS011;31655;48.972;10.686;2022-09-01T14:46:37;5.40;;;4.88;;
45944;SDS011;31655;48.972;10.686;2022-09-01T14:49:03;6.47;;;4.80;;
45944;SDS011;31655;48.972;10.686;2022-09-01T14:51:30;4.60;;;4.18;;
45944;SDS011;31655;48.972;10.686;2022-09-01T14:53:56;9.70;;;4.32;;
45944;SDS011;31655;48.972;10.686;2022-09-01T14:56:22;5.97;;;4.75;;
45944;SDS011;31655;48.972;10.686;2022-09-01T14:58:49;4.78;;;4.28;;
45944;SDS011;31655;48.972;10.686;2022-09-01T15:01:17;3.80;;;3.47;;
45944;SDS011;31655;48.972;10.686;2022-09-01T15:03:45;6.78;;;4.32;;
45944;SDS011;31655;48.972;10.686;2022-09-01T15:06:12;5.53;;;4.60;;
45944;SDS011;31655;48.972;10.686;2022-09-01T15:08:39;8.88;;;5.63;;
45944;SDS011;31655;48.972;10.686;2022-09-01T15:11:09;6.88;;;5.10;;
45944;SDS011;31655;48.972;10.686;2022-09-01T15:13:36;8.18;;;4.40;;
45944;SDS011;31655;48.972;10.686;2022-09-01T15:16:03;4.63;;;4.22;;
45944;SDS011;31655;48.972;10.686;2022-09-01T15:18:29;4.40;;;4.00;;
45944;SDS011;31655;48.972;10.686;2022-09-01T15:20:55;7.00;;;3.95;;
45944;SDS011;31655;48.972;10.686;2022-09-01T15:23:22;9.07;;;4.80;;
45944;SDS011;31655;48.972;10.686;2022-09-01T15:25:50;6.22;;;5.60;;
45944;SDS011;31655;48.972;10.686;2022-09-01T15:28:18;5.70;;;4.20;;
45944;SDS011;31655;48.972;10.686;2022-09-01T15:30:44;8.30;;;5.90;;
45944;SDS011;31655;48.972;10.686;2022-09-01T15:33:10;7.63;;;4.50;;
45944;SDS011;31655;48.972;10.686;2022-09-01T15:35:37;4.38;;;3.78;;
45944;SDS011;31655;48.972;10.686;2022-09-01T15:38:03;5.82;;;3.33;;
45944;SDS011;31655;48.972;10.686;2022-09-01T15:40:30;4.80;;;3.78;;
45944;SDS011;31655;48.972;10.686;2022-09-01T15:42:57;3.15;;;2.80;;
45944;SDS011;31655;48.972;10.686;2022-09-01T15:45:24;4.85;;;3.03;;
45944;SDS011;31655;48.972;10.686;2022-09-01T15:47:51;6.93;;;4.88;;